Aérodrome :
LOGIN :

S'inscrire | Disclaimer

   EN    FR    IT 

 










Légende :    VFR   VFR Marginal   IFR   IFR Intensif   IFR Très Intensif
Visi : 
Plafond : 
>= 8 km
>= 3000ft
5 à 8 km
1000 à 3000 ft
1500m à 5 km
500 à 1000 ft
800 à 1500m
200 à 500 ft
< 800m
< 200 ft
Symboles :   Orages  Brouillard  Fortes neiges  Fortes précipitations  Vent > 20 kt
SIGMETs :   Divers  Orages  Givrage  Turbulence  Onde Orograph.  Cendres Volcan.






- Altitude de l'aérodrome : 197 ft
- Code IATA : XOG


LFMO - Orange

DERNIER METAR :
  • 101100Z AUTO 17006KT 120V240 CAVOK 32/16 Q1014 NOSIG

METARs EXPIRÉS :
  • 101030Z AUTO 19007KT 150V230 CAVOK 32/15 Q1014 NOSIG
  • 101000Z AUTO 18006KT 150V230 CAVOK 31/15 Q1014 NOSIG
  • 100930Z AUTO 22006KT 170V260 CAVOK 30/15 Q1014 NOSIG
  • 100900Z AUTO 20004KT 140V270 CAVOK 29/16 Q1014 NOSIG
  • 100830Z AUTO VRB02KT CAVOK 29/18 Q1014 NOSIG

TAF TAF LFMO
Valide du 10 à 09h jusqu'au 11 à 09h UTC


100800Z 1009/1109 VRB02KT CAVOK
BECMG 1012/1014 23012KT
PROB30
TEMPO 1016/1020 VRB10KT 2000 TSRA BKN070CB
BECMG 1018/1020 VRB02KT



MET'MAP, la Météo Aéronautique d'un coup d'oeil ! - Copyright ORBIFLY Décembre 2007 - Disclaimer

ORBIFLY MET'MAP TEAM :

Programmation & Développement : Alexandra Zaïnal
Sur une idée originale de : Baudouin d'Aumeries
Assistance à la programmation : Marc-Olivier Méhu
Soutien technique & logistique : Manuel Goepfert

Contact : metmap@orbifly.com




SOURCES & CREDITS :

   NOAA